TimeCST,TemperatureF,Dew PointF,Humidity,Sea Level PressureIn,VisibilityMPH,Wind Direction,Wind SpeedMPH,Gust SpeedMPH,PrecipitationIn,Events,Conditions,WindDirDegrees,DateUTC
12:58 AM,41.7,32.5,70,30.41,10.0,Calm,Calm,-,N/A,,Clear,0,2013-11-07 06:58:00
1:58 AM,35.1,31.1,85,30.41,10.0,NNW,4.6,-,N/A,,Clear,340,2013-11-07 07:58:00
2:58 AM,37.2,31.8,81,30.42,10.0,WNW,2.3,-,N/A,,Clear,300,2013-11-07 08:58:00
3:58 AM,38.3,32.7,80,30.44,10.0,NW,4.6,-,N/A,,Clear,320,2013-11-07 09:58:00
4:58 AM,37.9,32.0,79,30.45,10.0,NW,3.5,-,N/A,,Clear,310,2013-11-07 10:58:00
5:58 AM,36.9,32.2,83,30.47,10.0,NNW,5.8,-,N/A,,Clear,330,2013-11-07 11:58:00
6:58 AM,37.4,32.5,83,30.49,10.0,NW,4.6,-,N/A,,Clear,310,2013-11-07 12:58:00
7:58 AM,39.7,34.2,80,30.51,10.0,NW,2.3,-,N/A,,Clear,310,2013-11-07 13:58:00
8:58 AM,44.4,35.8,72,30.52,10.0,West,5.8,-,N/A,,Clear,280,2013-11-07 14:58:00
9:58 AM,49.8,35.6,58,30.52,10.0,West,9.2,-,N/A,,Clear,270,2013-11-07 15:58:00
10:58 AM,55.2,36.3,49,30.51,10.0,WSW,9.2,-,N/A,,Clear,240,2013-11-07 16:58:00
11:58 AM,60.4,34.9,38,30.49,10.0,SW,8.1,-,N/A,,Clear,230,2013-11-07 17:58:00
12:58 PM,63.5,32.9,32,30.44,10.0,SW,9.2,-,N/A,,Clear,230,2013-11-07 18:58:00
1:58 PM,65.5,31.6,28,30.40,10.0,SW,10.4,-,N/A,,Clear,230,2013-11-07 19:58:00
2:58 PM,66.0,31.8,28,30.38,10.0,SSW,9.2,-,N/A,,Clear,210,2013-11-07 20:58:00
3:58 PM,66.4,30.6,26,30.36,10.0,SSW,10.4,-,N/A,,Clear,200,2013-11-07 21:58:00
4:58 PM,61.2,36.7,40,30.37,10.0,South,8.1,-,N/A,,Clear,170,2013-11-07 22:58:00
5:58 PM,52.7,36.7,55,30.37,10.0,SSE,8.1,-,N/A,,Clear,150,2013-11-07 23:58:00
6:58 PM,48.7,38.1,67,30.39,9.0,ENE,1.2,-,N/A,,Clear,70,2013-11-08 00:58:00
7:58 PM,46.6,37.9,72,30.38,9.0,SE,4.6,-,N/A,,Clear,140,2013-11-08 01:58:00
8:58 PM,45.0,37.2,74,30.38,10.0,SSE,6.9,-,N/A,,Clear,160,2013-11-08 02:58:00
9:58 PM,42.8,36.9,80,30.38,10.0,SSE,5.8,-,N/A,,Clear,160,2013-11-08 03:58:00
10:58 PM,41.5,36.7,83,30.37,10.0,SSE,3.5,-,N/A,,Clear,150,2013-11-08 04:58:00
11:58 PM,41.5,35.8,80,30.34,10.0,South,6.9,-,N/A,,Clear,170,2013-11-08 05:58:00